createdAt,value
2018-06-27T00:01:43.325Z,102243.99
2018-06-27T00:04:11.963Z,102241.27
2018-06-27T00:06:40.861Z,102231.70
2018-06-27T00:09:12.903Z,102231.14
2018-06-27T00:11:41.423Z,102230.64
2018-06-27T00:14:10.971Z,102232.59
2018-06-27T00:16:39.357Z,102233.37
2018-06-27T00:19:08.203Z,102228.04
2018-06-27T00:21:36.621Z,102227.75
2018-06-27T00:24:05.347Z,102226.16
2018-06-27T00:26:33.992Z,102227.26
2018-06-27T00:29:02.704Z,102228.56
2018-06-27T00:31:31.331Z,102233.23
2018-06-27T00:33:59.770Z,102228.28
2018-06-27T00:36:28.127Z,102235.88
2018-06-27T00:38:56.505Z,102241.10
2018-06-27T00:41:25.154Z,102242.13
2018-06-27T00:43:53.560Z,102242.09
2018-06-27T00:46:22.496Z,102244.04
2018-06-27T00:48:50.912Z,102244.59
2018-06-27T00:51:19.315Z,102243.06
2018-06-27T00:53:53.600Z,102238.70
2018-06-27T00:56:22.671Z,102243.63
2018-06-27T00:58:50.939Z,102252.45
2018-06-27T01:01:19.508Z,102244.09
2018-06-27T01:03:48.510Z,102242.00
2018-06-27T01:06:17.140Z,102244.69
2018-06-27T01:08:45.835Z,102242.81
2018-06-27T01:11:14.317Z,102248.23
2018-06-27T01:13:43.100Z,102248.95
2018-06-27T01:16:25.034Z,102242.00
2018-06-27T01:18:54.460Z,102245.21
2018-06-27T01:21:23.397Z,102253.29
2018-06-27T01:23:52.174Z,102243.64
2018-06-27T01:26:21.023Z,102247.16
2018-06-27T01:28:49.700Z,102247.95
2018-06-27T01:31:18.127Z,102253.59
2018-06-27T01:33:46.766Z,102256.02
2018-06-27T01:36:15.371Z,102256.31
2018-06-27T01:38:43.999Z,102252.80
2018-06-27T01:41:12.805Z,102250.16
2018-06-27T01:43:41.262Z,102258.19
2018-06-27T01:46:09.656Z,102259.25
2018-06-27T01:48:38.175Z,102256.08
2018-06-27T01:51:06.823Z,102259.32
2018-06-27T01:53:36.578Z,102256.65
2018-06-27T01:56:07.395Z,102257.16
2018-06-27T01:58:36.050Z,102255.58
2018-06-27T02:01:04.780Z,102253.97
2018-06-27T02:03:33.236Z,102254.22
2018-06-27T02:06:01.929Z,102257.73
2018-06-27T02:08:30.724Z,102258.81
2018-06-27T02:10:59.164Z,102255.88
2018-06-27T02:13:27.688Z,102256.39
2018-06-27T02:15:56.325Z,102263.67
2018-06-27T02:18:24.772Z,102256.16
2018-06-27T02:20:53.333Z,102256.15
2018-06-27T02:23:21.788Z,102260.69
2018-06-27T02:25:50.416Z,102262.33
2018-06-27T02:28:18.939Z,102258.30
2018-06-27T02:30:47.465Z,102255.37
2018-06-27T02:33:21.465Z,102259.91
2018-06-27T02:35:50.145Z,102254.02
2018-06-27T02:38:18.643Z,102250.27
2018-06-27T02:40:47.344Z,102251.86
2018-06-27T02:45:46.436Z,102246.79
2018-06-27T02:48:14.937Z,102243.58
2018-06-27T02:50:43.637Z,102246.25
2018-06-27T02:53:12.441Z,102248.69
2018-06-27T02:55:41.083Z,102251.92
2018-06-27T02:58:09.547Z,102248.96
2018-06-27T03:00:38.180Z,102246.81
2018-06-27T03:03:06.763Z,102254.88
2018-06-27T03:05:35.177Z,102249.50
2018-06-27T03:08:03.677Z,102256.75
2018-06-27T03:10:32.594Z,102260.52
2018-06-27T03:13:01.248Z,102253.55
2018-06-27T03:15:29.599Z,102257.57
2018-06-27T03:17:58.017Z,102255.14
2018-06-27T03:20:26.699Z,102265.59
2018-06-27T03:22:55.085Z,102256.22
2018-06-27T03:25:23.559Z,102256.47
2018-06-27T03:27:52.063Z,102256.73
2018-06-27T03:30:20.629Z,102252.72
2018-06-27T03:32:49.120Z,102257.83
2018-06-27T03:35:17.720Z,102258.36
2018-06-27T03:37:46.277Z,102265.86
2018-06-27T03:40:15.218Z,102268.30
2018-06-27T03:42:43.936Z,102268.27
2018-06-27T03:45:12.342Z,102267.72
2018-06-27T03:47:40.892Z,102271.21
2018-06-27T03:50:09.512Z,102274.69
2018-06-27T03:52:45.552Z,102272.00
2018-06-27T03:55:14.385Z,102271.76
2018-06-27T03:57:43.009Z,102269.33
2018-06-27T04:00:12.267Z,102269.06
2018-06-27T04:02:40.766Z,102270.13
2018-06-27T04:05:09.462Z,102269.88
2018-06-27T04:07:38.255Z,102267.73
2018-06-27T04:10:08.541Z,102269.08
2018-06-27T04:12:37.100Z,102272.80
2018-06-27T04:15:06.136Z,102274.41
2018-06-27T04:17:34.773Z,102271.47
2018-06-27T04:20:03.449Z,102273.84
2018-06-27T04:22:34.121Z,102273.06
2018-06-27T04:25:02.656Z,102278.38
2018-06-27T04:27:31.804Z,102278.92
2018-06-27T04:30:01.954Z,102283.18
2018-06-27T04:32:30.780Z,102286.39
2018-06-27T04:35:00.309Z,102284.25
2018-06-27T04:37:29.222Z,102283.95
2018-06-27T04:39:58.408Z,102284.22
2018-06-27T04:42:27.005Z,102289.00
2018-06-27T04:44:55.705Z,102288.15
2018-06-27T04:47:24.268Z,102290.09
2018-06-27T04:49:52.969Z,102291.41
2018-06-27T04:52:21.600Z,102297.00
2018-06-27T04:54:50.232Z,102293.20
2018-06-27T04:57:19.005Z,102295.67
2018-06-27T04:59:47.876Z,102292.44
2018-06-27T05:02:16.431Z,102291.11
2018-06-27T05:04:44.840Z,102297.52
2018-06-27T05:07:13.324Z,102293.68
2018-06-27T05:09:42.020Z,102292.61
2018-06-27T05:12:10.452Z,102294.98
2018-06-27T05:14:38.774Z,102297.55
2018-06-27T05:17:07.238Z,102293.09
2018-06-27T05:19:41.990Z,102295.57
2018-06-27T05:22:10.923Z,102290.81
2018-06-27T05:24:39.191Z,102293.39
2018-06-27T05:27:08.020Z,102287.92
2018-06-27T05:29:36.770Z,102288.74
2018-06-27T05:32:05.440Z,102295.02
2018-06-27T05:34:34.336Z,102289.29
2018-06-27T05:37:03.256Z,102291.41
2018-06-27T05:39:31.774Z,102299.17
2018-06-27T05:42:00.236Z,102302.40
2018-06-27T05:44:28.981Z,102303.09
2018-06-27T05:46:57.542Z,102302.39
2018-06-27T05:49:26.184Z,102304.61
2018-06-27T05:51:54.791Z,102306.86
2018-06-27T05:54:27.716Z,102304.05
2018-06-27T05:56:56.845Z,102309.42
2018-06-27T05:59:25.357Z,102308.25
2018-06-27T06:01:55.279Z,102302.83
2018-06-27T06:04:24.267Z,102298.50
2018-06-27T06:06:53.760Z,102292.22
2018-06-27T06:09:22.563Z,102297.66
2018-06-27T06:11:50.984Z,102293.64
2018-06-27T06:14:19.621Z,102297.81
2018-06-27T06:16:48.140Z,102298.13
2018-06-27T06:19:16.764Z,102303.73
2018-06-27T06:21:45.214Z,102298.64
2018-06-27T06:24:14.276Z,102301.18
2018-06-27T06:26:42.836Z,102298.67
2018-06-27T06:29:11.367Z,102301.59
2018-06-27T06:31:40.264Z,102298.38
2018-06-27T06:34:08.916Z,102300.72
2018-06-27T06:36:37.395Z,102301.23
2018-06-27T06:39:08.556Z,102300.64
2018-06-27T06:41:37.452Z,102307.22
2018-06-27T06:44:06.194Z,102298.09
2018-06-27T06:46:35.297Z,102301.45
2018-06-27T06:49:04.121Z,102307.46
2018-06-27T06:51:32.716Z,102304.50
2018-06-27T06:54:02.769Z,102303.84
2018-06-27T06:56:32.201Z,102313.12
2018-06-27T06:59:01.315Z,102302.14
2018-06-27T07:01:29.835Z,102311.09
2018-06-27T07:03:58.407Z,102309.62
2018-06-27T07:06:27.105Z,102314.74
2018-06-27T07:08:56.343Z,102308.02
2018-06-27T07:11:25.144Z,102312.58
2018-06-27T07:13:53.572Z,102313.74
2018-06-27T07:16:24.964Z,102314.39
2018-06-27T07:18:54.207Z,102316.30
2018-06-27T07:21:23.720Z,102318.69
2018-06-27T07:23:52.085Z,102319.67
2018-06-27T07:26:20.758Z,102317.17
2018-06-27T07:28:50.451Z,102313.88
2018-06-27T07:31:19.178Z,102317.07
2018-06-27T07:33:48.043Z,102315.08
2018-06-27T07:36:17.114Z,102310.27
2018-06-27T07:38:45.661Z,102311.13
2018-06-27T07:41:14.535Z,102311.22
2018-06-27T07:43:43.404Z,102313.48
2018-06-27T07:46:11.817Z,102310.31
2018-06-27T07:48:40.396Z,102313.88
2018-06-27T07:51:08.847Z,102311.67
2018-06-27T07:53:38.248Z,102318.06
2018-06-27T07:56:07.372Z,102317.94
2018-06-27T07:58:36.067Z,102321.02
2018-06-27T08:01:04.676Z,102313.03
2018-06-27T08:03:33.004Z,102312.95
2018-06-27T08:06:01.729Z,102316.84
2018-06-27T08:08:30.188Z,102318.25
2018-06-27T08:10:58.889Z,102309.20
2018-06-27T08:13:27.476Z,102317.27
2018-06-27T08:15:56.083Z,102317.63
2018-06-27T08:18:24.553Z,102314.23
2018-06-27T08:20:53.200Z,102311.16
2018-06-27T08:23:22.072Z,102317.68
2018-06-27T08:25:54.924Z,102305.80
2018-06-27T08:28:23.372Z,102305.03
2018-06-27T08:30:51.972Z,102304.45
2018-06-27T08:33:21.439Z,102306.04
2018-06-27T08:35:50.442Z,102298.56
2018-06-27T08:38:18.991Z,102298.20
2018-06-27T08:40:47.648Z,102305.64
2018-06-27T08:43:16.077Z,102295.73
2018-06-27T08:45:44.981Z,102294.52
2018-06-27T08:48:13.603Z,102291.75
2018-06-27T08:50:41.954Z,102283.96
2018-06-27T08:53:10.754Z,102285.66
2018-06-27T08:55:39.241Z,102287.73
2018-06-27T08:58:08.364Z,102280.38
2018-06-27T09:00:36.960Z,102278.84
2018-06-27T09:03:05.717Z,102274.62
2018-06-27T09:05:38.613Z,102274.55
2018-06-27T09:08:07.951Z,102276.16
2018-06-27T09:10:36.547Z,102264.83
2018-06-27T09:13:05.168Z,102268.66
2018-06-27T09:15:33.620Z,102270.97
2018-06-27T09:18:02.267Z,102263.70
2018-06-27T09:20:30.784Z,102267.69
2018-06-27T09:25:38.033Z,102262.17
2018-06-27T09:28:06.574Z,102269.84
2018-06-27T09:30:35.183Z,102262.41
2018-06-27T09:33:04.094Z,102263.16
2018-06-27T09:35:33.457Z,102266.86
2018-06-27T09:38:02.888Z,102261.63
2018-06-27T09:40:31.253Z,102261.71
2018-06-27T09:43:03.452Z,102242.91
2018-06-27T09:45:32.280Z,102253.66
2018-06-27T09:48:01.019Z,102250.32
2018-06-27T09:50:29.896Z,102250.29
2018-06-27T09:52:58.742Z,102243.37
2018-06-27T09:55:27.141Z,102246.52
2018-06-27T09:57:55.914Z,102234.28
2018-06-27T10:00:30.074Z,102245.71
2018-06-27T10:02:58.725Z,102240.32
2018-06-27T10:05:27.377Z,102242.38
2018-06-27T10:07:55.967Z,102235.30
2018-06-27T10:10:24.663Z,102233.75
2018-06-27T10:12:53.640Z,102239.47
2018-06-27T10:15:22.345Z,102226.77
2018-06-27T10:17:50.944Z,102227.58
2018-06-27T10:20:19.449Z,102229.34
2018-06-27T10:22:48.128Z,102218.78
2018-06-27T10:25:16.700Z,102221.78
2018-06-27T10:27:45.942Z,102224.16
2018-06-27T10:30:14.437Z,102219.20
2018-06-27T10:32:43.821Z,102219.43
2018-06-27T10:35:12.228Z,102213.75
2018-06-27T10:37:40.866Z,102214.91
2018-06-27T10:40:09.260Z,102203.58
2018-06-27T10:42:37.914Z,102200.70
2018-06-27T10:45:06.319Z,102190.41
2018-06-27T10:47:34.593Z,102185.59
2018-06-27T10:50:03.282Z,102184.91
2018-06-27T10:52:31.766Z,102188.09
2018-06-27T10:55:05.024Z,102190.81
2018-06-27T10:57:33.497Z,102182.19
2018-06-27T11:00:02.161Z,102184.59
2018-06-27T11:02:34.142Z,102174.41
2018-06-27T11:05:06.174Z,102170.22
2018-06-27T11:07:34.831Z,102170.45
2018-06-27T11:10:04.302Z,102171.84
2018-06-27T11:12:32.794Z,102166.84
2018-06-27T11:15:01.397Z,102164.46
2018-06-27T11:17:29.929Z,102162.64
2018-06-27T11:19:58.423Z,102161.64
2018-06-27T11:22:27.067Z,102157.89
2018-06-27T11:24:55.540Z,102151.25
2018-06-27T11:27:24.993Z,102152.69
2018-06-27T11:29:53.695Z,102151.78
2018-06-27T11:32:22.620Z,102149.86
2018-06-27T11:34:52.985Z,102153.86
2018-06-27T11:37:21.734Z,102150.45
2018-06-27T11:39:51.322Z,102139.83
2018-06-27T11:42:20.777Z,102127.98
2018-06-27T11:44:49.134Z,102133.58
2018-06-27T11:47:18.694Z,102133.69
2018-06-27T11:49:47.267Z,102137.28
2018-06-27T11:52:16.170Z,102122.23
2018-06-27T11:54:49.491Z,102117.94
2018-06-27T11:57:18.002Z,102123.55
2018-06-27T11:59:49.095Z,102119.80
2018-06-27T12:02:17.801Z,102119.43
2018-06-27T12:04:46.268Z,102114.04
2018-06-27T12:07:15.306Z,102120.84
2018-06-27T12:09:44.025Z,102113.30
2018-06-27T12:12:12.530Z,102109.61
2018-06-27T12:14:41.426Z,102109.92
2018-06-27T12:17:10.005Z,102107.29
2018-06-27T12:19:46.034Z,102104.61
2018-06-27T12:22:22.640Z,102109.10
2018-06-27T12:24:54.474Z,102095.65
2018-06-27T12:27:23.195Z,102096.89
2018-06-27T12:29:52.242Z,102089.80
2018-06-27T12:32:22.181Z,102100.55
2018-06-27T12:34:53.110Z,102090.16
2018-06-27T12:37:23.310Z,102088.35
2018-06-27T12:39:51.972Z,102085.23
2018-06-27T12:42:21.656Z,102082.70
2018-06-27T12:44:52.249Z,102074.98
2018-06-27T12:47:22.802Z,102089.70
2018-06-27T12:49:53.791Z,102080.59
2018-06-27T12:52:23.077Z,102080.95
2018-06-27T12:54:56.248Z,102090.91
2018-06-27T12:57:24.872Z,102090.00
2018-06-27T12:59:53.608Z,102088.02
2018-06-27T13:02:22.366Z,102077.59
2018-06-27T13:04:51.058Z,102074.43
2018-06-27T13:07:19.322Z,102074.01
2018-06-27T13:09:47.727Z,102066.18
2018-06-27T13:12:16.369Z,102067.25
2018-06-27T13:14:44.950Z,102072.25
2018-06-27T13:17:13.956Z,102061.92
2018-06-27T13:19:42.442Z,102065.38
2018-06-27T13:22:11.065Z,102056.39
2018-06-27T13:24:39.789Z,102053.80
2018-06-27T13:27:08.284Z,102053.66
2018-06-27T13:29:36.853Z,102063.52
2018-06-27T13:32:05.582Z,102053.02
2018-06-27T13:34:33.925Z,102049.61
2018-06-27T13:37:02.707Z,102043.67
2018-06-27T13:39:31.313Z,102054.14
2018-06-27T13:41:59.963Z,102052.85
2018-06-27T13:44:28.794Z,102048.33
2018-06-27T13:46:57.836Z,102038.45
2018-06-27T13:49:26.739Z,102033.21
2018-06-27T13:51:55.412Z,102040.26
2018-06-27T13:54:23.957Z,102045.80
2018-06-27T13:56:52.959Z,102051.01
2018-06-27T13:59:21.459Z,102046.77
2018-06-27T14:01:50.030Z,102041.56
2018-06-27T14:04:18.689Z,102038.18
2018-06-27T14:06:47.098Z,102031.26
2018-06-27T14:09:15.761Z,102029.70
2018-06-27T14:11:44.336Z,102040.41
2018-06-27T14:14:12.876Z,102028.02
2018-06-27T14:16:41.362Z,102026.67
2018-06-27T14:19:10.114Z,102019.52
2018-06-27T14:21:38.854Z,102023.95
2018-06-27T14:24:07.518Z,102016.05
2018-06-27T14:26:35.993Z,102002.98
2018-06-27T14:29:04.719Z,102006.78
2018-06-27T14:31:33.244Z,102017.02
2018-06-27T14:34:01.778Z,102014.86
2018-06-27T14:36:30.381Z,102018.46
2018-06-27T14:38:58.892Z,102021.72
2018-06-27T14:41:27.549Z,102019.17
2018-06-27T14:43:56.476Z,102015.70
2018-06-27T14:46:25.037Z,102012.23
2018-06-27T14:48:54.013Z,102015.58
2018-06-27T14:51:22.609Z,102014.36
2018-06-27T14:53:51.064Z,101997.88
2018-06-27T14:56:19.731Z,102007.13
2018-06-27T14:58:48.415Z,101992.77
2018-06-27T15:01:17.194Z,101995.15
2018-06-27T15:03:45.897Z,102001.30
2018-06-27T15:06:14.768Z,101995.51
2018-06-27T15:08:44.000Z,101992.75
2018-06-27T15:11:12.665Z,101982.80
2018-06-27T15:13:41.129Z,101976.00
2018-06-27T15:16:09.868Z,101982.53
2018-06-27T15:18:39.966Z,101981.50
2018-06-27T15:21:08.620Z,101972.78
2018-06-27T15:23:37.599Z,101980.70
2018-06-27T15:26:06.881Z,101978.12
2018-06-27T15:28:35.354Z,101972.13
2018-06-27T15:31:04.605Z,101980.40
2018-06-27T15:33:33.398Z,101968.58
2018-06-27T15:36:02.492Z,101971.50
2018-06-27T15:38:31.010Z,101971.77
2018-06-27T15:40:59.492Z,101964.91
2018-06-27T15:43:28.062Z,101966.30
2018-06-27T15:45:57.176Z,101954.09
2018-06-27T15:48:25.661Z,101959.97
2018-06-27T15:50:54.172Z,101958.09
2018-06-27T15:53:23.016Z,101956.80
2018-06-27T15:55:52.500Z,101963.11
2018-06-27T15:58:20.963Z,101954.80
2018-06-27T16:00:49.654Z,101962.11
2018-06-27T16:03:18.566Z,101958.00
2018-06-27T16:05:47.080Z,101960.94
2018-06-27T16:08:15.528Z,101957.80
2018-06-27T16:10:44.159Z,101963.99
2018-06-27T16:13:12.804Z,101957.36
2018-06-27T16:15:41.398Z,101959.13
2018-06-27T16:18:09.912Z,101959.09
2018-06-27T16:20:38.668Z,101959.30
2018-06-27T16:23:07.227Z,101959.81
2018-06-27T16:25:35.851Z,101964.68
2018-06-27T16:28:04.678Z,101963.52
2018-06-27T16:30:33.092Z,101964.66
2018-06-27T16:33:01.718Z,101965.39
2018-06-27T16:35:30.353Z,101961.58
2018-06-27T16:37:58.882Z,101963.38
2018-06-27T16:40:27.665Z,101959.83
2018-06-27T16:42:56.240Z,101959.28
2018-06-27T16:45:25.110Z,101960.86
2018-06-27T16:47:56.177Z,101959.37
2018-06-27T16:50:26.316Z,101961.42
2018-06-27T16:52:55.030Z,101964.83
2018-06-27T16:55:23.656Z,101969.55
2018-06-27T16:57:52.287Z,101976.75
2018-06-27T17:00:20.857Z,101976.75
2018-06-27T17:02:49.505Z,101974.52
2018-06-27T17:05:18.196Z,101977.05
2018-06-27T17:07:46.820Z,101984.66
2018-06-27T17:10:15.713Z,101972.59
2018-06-27T17:12:44.035Z,101975.59
2018-06-27T17:15:12.581Z,101985.38
2018-06-27T17:17:41.199Z,101973.03
2018-06-27T17:20:10.057Z,101981.92
2018-06-27T17:22:38.531Z,101976.53
2018-06-27T17:25:07.352Z,101986.75
2018-06-27T17:27:35.910Z,101975.98
2018-06-27T17:30:04.909Z,101978.28
2018-06-27T17:32:33.578Z,101977.84
2018-06-27T17:35:03.236Z,101987.22
2018-06-27T17:37:32.094Z,101983.34
2018-06-27T17:40:00.850Z,101987.55
2018-06-27T17:42:29.461Z,101991.53
2018-06-27T17:44:57.956Z,101988.80
2018-06-27T17:47:26.847Z,101984.25
2018-06-27T17:49:55.812Z,101986.48
2018-06-27T17:52:24.243Z,101992.58
2018-06-27T17:54:52.961Z,101990.31
2018-06-27T17:57:21.504Z,101990.95
2018-06-27T17:59:50.042Z,101995.06
2018-06-27T18:02:18.618Z,101996.30
2018-06-27T18:04:47.207Z,102002.83
2018-06-27T18:07:16.462Z,102002.73
2018-06-27T18:09:45.065Z,102003.05
2018-06-27T18:12:13.603Z,102003.59
2018-06-27T18:14:42.326Z,102007.23
2018-06-27T18:17:11.015Z,102002.04
2018-06-27T18:19:39.535Z,101998.55
2018-06-27T18:22:08.424Z,102004.66
2018-06-27T18:24:37.058Z,102007.13
2018-06-27T18:27:05.851Z,102012.64
2018-06-27T18:29:34.718Z,102008.00
2018-06-27T18:32:03.607Z,102010.47
2018-06-27T18:34:32.234Z,102010.16
2018-06-27T18:37:01.122Z,102011.12
2018-06-27T18:39:29.732Z,102017.33
2018-06-27T18:41:58.277Z,102015.67
2018-06-27T18:44:26.988Z,102012.39
2018-06-27T18:46:55.777Z,102018.83
2018-06-27T18:49:24.259Z,102013.09
2018-06-27T18:51:52.944Z,102017.01
2018-06-27T18:54:21.983Z,102016.66
2018-06-27T18:56:50.831Z,102009.19
2018-06-27T18:59:19.817Z,102020.98
2018-06-27T19:01:48.828Z,102020.98
2018-06-27T19:04:17.330Z,102015.22
2018-06-27T19:06:45.733Z,102019.17
2018-06-27T19:09:14.232Z,102019.66
2018-06-27T19:11:42.702Z,102022.27
2018-06-27T19:14:11.357Z,102018.95
2018-06-27T19:16:39.923Z,102018.30
2018-06-27T19:19:08.593Z,102018.08
2018-06-27T19:21:37.290Z,102016.02
2018-06-27T19:24:06.499Z,102020.80
2018-06-27T19:26:35.213Z,102019.33
2018-06-27T19:29:03.779Z,102017.30
2018-06-27T19:31:32.474Z,102018.68
2018-06-27T19:34:01.373Z,102022.63
2018-06-27T19:36:30.320Z,102025.59
2018-06-27T19:38:58.933Z,102027.75
2018-06-27T19:41:27.422Z,102025.59
2018-06-27T19:43:56.022Z,102023.34
2018-06-27T19:46:24.434Z,102027.86
2018-06-27T19:48:53.113Z,102032.06
2018-06-27T19:51:21.784Z,102036.82
2018-06-27T19:53:50.234Z,102033.73
2018-06-27T19:56:18.783Z,102031.58
2018-06-27T19:58:47.322Z,102037.71
2018-06-27T20:01:15.966Z,102041.55
2018-06-27T20:03:44.508Z,102044.92
2018-06-27T20:06:13.052Z,102048.80
2018-06-27T20:08:41.637Z,102050.56
2018-06-27T20:11:10.063Z,102045.15
2018-06-27T20:13:39.359Z,102047.89
2018-06-27T20:16:08.042Z,102051.70
2018-06-27T20:18:36.547Z,102049.20
2018-06-27T20:21:05.044Z,102055.66
2018-06-27T20:23:33.618Z,102056.17
2018-06-27T20:26:02.200Z,102053.28
2018-06-27T20:28:30.834Z,102056.77
2018-06-27T20:30:59.305Z,102057.96
2018-06-27T20:33:27.569Z,102058.67
2018-06-27T20:35:56.414Z,102060.58
2018-06-27T20:38:25.010Z,102056.34
2018-06-27T20:40:53.276Z,102058.26
2018-06-27T20:43:21.844Z,102053.05
2018-06-27T20:45:50.333Z,102046.33
2018-06-27T20:48:18.851Z,102051.41
2018-06-27T20:50:47.410Z,102057.20
2018-06-27T20:53:15.924Z,102048.69
2018-06-27T20:55:44.826Z,102057.86
2018-06-27T20:58:13.476Z,102061.73
2018-06-27T21:00:42.325Z,102059.03
2018-06-27T21:03:11.030Z,102060.94
2018-06-27T21:05:39.742Z,102062.55
2018-06-27T21:08:08.408Z,102060.72
2018-06-27T21:10:37.277Z,102062.14
2018-06-27T21:13:05.763Z,102065.12
2018-06-27T21:15:34.427Z,102066.03
2018-06-27T21:18:03.213Z,102067.97
2018-06-27T21:20:31.928Z,102071.45
2018-06-27T21:23:00.493Z,102068.11
2018-06-27T21:25:28.751Z,102070.14
2018-06-27T21:27:57.197Z,102070.02
2018-06-27T21:30:25.604Z,102076.70
2018-06-27T21:32:54.074Z,102077.42
2018-06-27T21:35:22.689Z,102078.63
2018-06-27T21:37:51.128Z,102080.07
2018-06-27T21:40:19.725Z,102077.22
2018-06-27T21:42:48.365Z,102078.58
2018-06-27T21:45:17.316Z,102078.63
2018-06-27T21:47:45.733Z,102081.52
2018-06-27T21:50:14.041Z,102085.45
2018-06-27T21:52:42.615Z,102079.32
2018-06-27T21:55:11.065Z,102081.67
2018-06-27T21:57:39.685Z,102086.88
2018-06-27T22:00:10.145Z,102088.52
2018-06-27T22:02:38.745Z,102090.54
2018-06-27T22:05:11.067Z,102085.11
2018-06-27T22:07:40.273Z,102081.16
2018-06-27T22:10:12.043Z,102091.27
2018-06-27T22:12:40.570Z,102088.34
2018-06-27T22:15:09.184Z,102095.45
2018-06-27T22:17:37.675Z,102089.06
2018-06-27T22:20:06.121Z,102085.61
2018-06-27T22:22:34.791Z,102093.05
2018-06-27T22:25:03.326Z,102096.48
2018-06-27T22:27:31.996Z,102088.42
2018-06-27T22:30:00.869Z,102089.30
2018-06-27T22:32:29.432Z,102092.33
2018-06-27T22:34:58.290Z,102096.33
2018-06-27T22:37:27.025Z,102100.41
2018-06-27T22:39:55.566Z,102092.73
2018-06-27T22:42:24.006Z,102098.41
2018-06-27T22:44:53.153Z,102098.52
2018-06-27T22:47:21.845Z,102097.77
2018-06-27T22:49:50.361Z,102098.90
2018-06-27T22:52:18.979Z,102091.88
2018-06-27T22:54:47.438Z,102101.69
2018-06-27T22:57:15.984Z,102102.66
2018-06-27T22:59:44.501Z,102100.11
2018-06-27T23:02:13.101Z,102104.98
2018-06-27T23:04:41.702Z,102104.51
2018-06-27T23:07:10.078Z,102114.54
2018-06-27T23:09:38.605Z,102103.64
2018-06-27T23:12:07.087Z,102107.55
2018-06-27T23:14:35.767Z,102106.90
2018-06-27T23:17:04.621Z,102106.09
2018-06-27T23:19:33.207Z,102104.73
2018-06-27T23:22:02.445Z,102106.03
2018-06-27T23:24:31.281Z,102105.87
2018-06-27T23:27:00.115Z,102108.95
2018-06-27T23:29:28.665Z,102109.28
2018-06-27T23:31:57.025Z,102098.13
2018-06-27T23:34:25.516Z,102108.64
2018-06-27T23:36:54.161Z,102111.61
2018-06-27T23:39:22.686Z,102101.64
2018-06-27T23:41:51.200Z,102107.77
2018-06-27T23:44:19.899Z,102103.31
2018-06-27T23:46:48.372Z,102098.98
2018-06-27T23:49:16.859Z,102101.98
2018-06-27T23:51:45.640Z,102095.84
2018-06-27T23:54:14.218Z,102103.42
2018-06-27T23:56:42.804Z,102098.71
2018-06-27T23:59:11.244Z,102100.06
